Pagrindinis puslapis
METAR-TAF:

METAR-TAF

Oro uostai :

Pratica Di Mare, Italija

platuma: 41-39N, ilguma: 012-27E, Aukštis: 6 m

Dabartinis oras

Ataskaita buvo paskelbta 31 minutes, ne 21:55 UTC
Vėjas 3 kt iš Šiaurės Rytų
Temperatūra 8°C
Drėgmė 93%
Slėgis 1026 hPa
Matomumas 10 km arba daugiau
nėra debesų žemiau 1500 m ir nėra kamuolinių lietaus debesų

METAR: LIRE 072155Z 05003KT CAVOK 08/07 Q1026 RMK FEW FEW090 VIS MIN 9999 WIND THR13 03002KT WIND THR31 02002KT BLU

Laikas: 00:26 (22:26 UTC)

Prognozė

Ataskaita buvo paskelbta 2 valandos ir 26 minutes, ne 20:00 UTC
Prognozė galioja nuo 07 metu 21 UTC su 08 metu 06 UTC
Vėjas 3 kt nuo kintamojo kryptimis
Matomumas 10 km arba daugiau
nėra debesų žemiau 1500 m ir nėra kamuolinių lietaus debesų

TAF: LIRE 072000Z 0721/0806 VRB03KT CAVOK

Orai ataskaitas ir orų prognozės (METAR, TAF).

turimą stotys yra geltonos ir raudonos taškus žemėlapyje.

Perkelti pele per norėdami pamatyti stoties vardą.

Tada spustelėkite, norėdami matyti oro stebėjimo ir prognozės.

Norėdami pakeisti žemėlapį: spustelėkite ant žalios mygtukų su juodo kryžiaus žemyn,; žalią mygtuką su brūkšneliu, jei norite nutolinti; arba žalių rodyklių gretimoms žemėlapius.


METAR-TAF: